This is the latest recevied weather packets stored in our database for station/object OK2ILA-13. If no packets are shown the sender has not sent any weather packets the latest 10 day(s).
| Time | Temp. | Humidity | Pressure | Rain* | Wind** | Luminosity | Snow |
|---|---|---|---|---|---|---|---|
| 1777354805 | 3.33° C | 55% | 1021.4 hPa | - | - | - | - |
| 1777354205 | 3.33° C | 54% | 1021.5 hPa | - | - | - | - |
| 1777353605 | 2.78° C | 54% | 1021.4 hPa | - | - | - | - |
| 1777353006 | 2.78° C | 53% | 1021.4 hPa | - | - | - | - |
| 1777352406 | 2.78° C | 52% | 1021.2 hPa | - | - | - | - |
| 1777351806 | 3.33° C | 48% | 1021.1 hPa | - | - | - | - |
| 1777351206 | 6.11° C | 40% | 1020.9 hPa | - | - | - | - |
| 1777350606 | 6.11° C | 39% | 1020.8 hPa | - | - | - | - |
| 1777350007 | 5.56° C | 40% | 1020.7 hPa | - | - | - | - |
| 1777349407 | 5° C | 43% | 1020.7 hPa | - | - | - | - |
| 1777348807 | 3.89° C | 44% | 1020.6 hPa | - | - | - | - |
| 1777348208 | 3.33° C | 45% | 1020.4 hPa | - | - | - | - |
| 1777347608 | 3.33° C | 45% | 1020.5 hPa | - | - | - | - |
| 1777347008 | 3.33° C | 44% | 1020.5 hPa | - | - | - | - |
| 1777346409 | 3.89° C | 44% | 1020.3 hPa | - | - | - | - |
| 1777345809 | 3.89° C | 44% | 1020.4 hPa | - | - | - | - |
| 1777345210 | 3.33° C | 44% | 1020.3 hPa | - | - | - | - |
| 1777344610 | 3.33° C | 44% | 1020.5 hPa | - | - | - | - |
| 1777344010 | 3.33° C | 44% | 1020.5 hPa | - | - | - | - |
| 1777343411 | 3.89° C | 43% | 1020.5 hPa | - | - | - | - |
| 1777342812 | 3.89° C | 43% | 1020.4 hPa | - | - | - | - |
| 1777342212 | 4.44° C | 43% | 1020.5 hPa | - | - | - | - |
| 1777341612 | 4.44° C | 42% | 1020.5 hPa | - | - | - | - |
| 1777340413 | 3.89° C | 43% | 1020.4 hPa | - | - | - | - |
| 1777339813 | 3.33° C | 44% | 1020.5 hPa | - | - | - | - |
* Rain since midnight (hover to see other rain measurements)
** Current wind speed in m/s (hover to see current wind gust speed)